Time;durP1;ratioP1;P1;durP2;ratioP2;P2;SDS_P1;SDS_P2;PMS_P1;PMS_P2;Temp;Humidity;BMP_temperature;BMP_pressure;BME280_temperature;BME280_humidity;BME280_pressure;Samples;Min_cycle;Max_cycle;Signal;HPM_P1;HPM_P2
2021/03/19 00:00:38;;;;;;;11.73;7.93;;;;;;;1.12;92.51;98961.66;3545246;27;20096;-59
2021/03/19 00:02:20;;;;;;;13.82;7.55;;;;;;;1.11;92.13;98962.50;3552185;27;20524;-60
2021/03/19 00:04:02;;;;;;;15.13;8.13;;;;;;;1.11;92.52;98967.59;3548767;27;20050;-60
2021/03/19 00:05:44;;;;;;;14.07;7.90;;;;;;;1.10;92.49;98965.84;3550727;27;20050;-60
2021/03/19 00:07:25;;;;;;;12.32;8.07;;;;;;;1.12;92.69;98966.75;3550160;27;20511;-60
2021/03/19 00:09:10;;;;;;;13.93;8.15;;;;;;;1.12;92.65;98956.53;3549981;27;20054;-60
2021/03/19 00:10:51;;;;;;;13.53;7.57;;;;;;;1.14;92.63;98962.63;3564970;27;20050;-60
2021/03/19 00:12:32;;;;;;;14.10;8.50;;;;;;;1.13;92.47;98958.31;3553029;27;20302;-60
2021/03/19 00:14:14;;;;;;;12.35;7.53;;;;;;;1.13;92.45;98963.41;3550544;27;20058;-60
2021/03/19 00:15:56;;;;;;;12.85;7.40;;;;;;;1.13;92.43;98960.84;3548472;27;20059;-60
2021/03/19 00:17:38;;;;;;;15.77;8.52;;;;;;;1.11;92.35;98954.81;3550441;27;20129;-60
2021/03/19 00:19:38;;;;;;;15.32;8.18;;;;;;;1.15;92.40;98963.47;3551352;27;20145;-60
2021/03/19 00:21:20;;;;;;;14.50;8.38;;;;;;;1.13;92.80;98952.34;3550694;27;20092;-60
2021/03/19 00:23:02;;;;;;;14.65;8.38;;;;;;;1.14;92.49;98957.50;3552144;27;20461;-60
2021/03/19 00:24:44;;;;;;;16.75;8.27;;;;;;;1.14;92.58;98954.06;3548965;27;20049;-60
2021/03/19 00:26:26;;;;;;;14.93;7.95;;;;;;;1.14;92.81;98954.06;3553708;27;20449;-60
2021/03/19 00:28:13;;;;;;;15.65;8.38;;;;;;;1.13;92.80;98950.63;3554297;27;20050;-60
2021/03/19 00:29:54;;;;;;;15.40;9.27;;;;;;;1.14;92.65;98952.41;3551225;27;20410;-60
2021/03/19 00:31:35;;;;;;;15.07;8.55;;;;;;;1.13;92.61;98955.75;3553264;27;20057;-60
2021/03/19 00:33:19;;;;;;;13.90;8.32;;;;;;;1.12;92.44;98953.13;3550694;27;20042;-60
2021/03/19 00:35:00;;;;;;;15.95;8.10;;;;;;;1.11;92.72;98943.75;3554480;27;20103;-60
2021/03/19 00:36:42;;;;;;;13.45;7.13;;;;;;;1.12;92.77;98950.56;3550677;27;20064;-60
2021/03/19 00:38:23;;;;;;;13.05;7.45;;;;;;;1.11;92.41;98947.16;3552619;27;20042;-60
2021/03/19 00:40:07;;;;;;;14.00;8.45;;;;;;;1.11;92.38;98952.25;3552065;27;20046;-60
2021/03/19 00:41:48;;;;;;;15.32;8.77;;;;;;;1.11;92.53;98954.81;3550667;27;20494;-60
2021/03/19 00:43:30;;;;;;;17.92;8.27;;;;;;;1.10;92.79;98953.06;3554280;27;20050;-60
2021/03/19 00:45:14;;;;;;;13.48;7.50;;;;;;;1.10;92.58;98952.19;3550734;27;20051;-59
2021/03/19 00:47:03;;;;;;;12.98;7.07;;;;;;;1.09;92.42;98941.13;3553861;27;20449;-60
2021/03/19 00:48:45;;;;;;;14.88;7.95;;;;;;;1.09;92.51;98942.78;3552246;27;20064;-59
2021/03/19 00:50:29;;;;;;;16.40;8.23;;;;;;;1.07;92.40;98944.41;3553110;27;20046;-59
2021/03/19 00:52:10;;;;;;;14.73;7.95;;;;;;;1.05;92.47;98949.47;3554162;27;20061;-58
2021/03/19 00:53:51;;;;;;;13.82;8.20;;;;;;;1.04;92.20;98946.88;3552768;27;20104;-58
2021/03/19 00:55:34;;;;;;;14.77;8.25;;;;;;;1.04;92.60;98951.97;3554349;27;20046;-58
2021/03/19 00:57:15;;;;;;;16.13;8.02;;;;;;;1.02;92.46;98941.69;3550569;27;20181;-58
2021/03/19 00:58:56;;;;;;;13.77;7.53;;;;;;;1.02;92.29;98946.81;3553812;27;20503;-58
2021/03/19 01:00:38;;;;;;;14.65;8.90;;;;;;;1.01;92.25;98944.19;3552157;27;20039;-57
2021/03/19 01:02:19;;;;;;;14.30;8.63;;;;;;;0.99;92.65;98939.00;3553409;27;20066;-57
2021/03/19 01:04:02;;;;;;;15.07;7.03;;;;;;;0.98;92.51;98939.81;3555102;27;20140;-56
2021/03/19 01:05:45;;;;;;;13.20;7.45;;;;;;;0.98;92.58;98943.25;3553149;27;20043;-60
2021/03/19 01:07:27;;;;;;;14.80;7.30;;;;;;;0.96;92.71;98938.88;3554011;27;20050;-60
2021/03/19 01:09:08;;;;;;;13.90;7.65;;;;;;;0.96;92.87;98942.28;3552773;27;20047;-60
2021/03/19 01:10:52;;;;;;;13.63;7.05;;;;;;;0.96;92.76;98947.41;3553072;27;20099;-60
2021/03/19 01:12:33;;;;;;;13.02;7.28;;;;;;;0.96;92.89;98951.66;3553103;27;20441;-60
2021/03/19 01:14:16;;;;;;;13.02;7.32;;;;;;;0.95;92.52;98948.22;3550308;27;20050;-59
2021/03/19 01:15:57;;;;;;;14.23;7.30;;;;;;;0.94;92.51;98948.16;3551574;27;20538;-60
2021/03/19 01:17:38;;;;;;;13.50;7.75;;;;;;;0.91;92.63;98948.94;3552661;27;20419;-60
2021/03/19 01:19:21;;;;;;;12.90;7.25;;;;;;;0.91;92.42;98942.94;3553924;27;20447;-60
2021/03/19 01:21:02;;;;;;;13.52;6.72;;;;;;;0.90;92.55;98946.31;3550313;27;20043;-60
2021/03/19 01:22:44;;;;;;;11.65;6.60;;;;;;;0.90;92.76;98948.88;3553435;27;20054;-60
2021/03/19 01:24:25;;;;;;;11.68;6.45;;;;;;;0.89;92.80;98947.09;3551054;27;20043;-60
2021/03/19 01:26:07;;;;;;;11.23;6.57;;;;;;;0.89;92.53;98953.06;3553303;27;20043;-60
2021/03/19 01:27:48;;;;;;;11.45;6.60;;;;;;;0.87;92.31;98952.16;3553290;27;20042;-60
2021/03/19 01:29:30;;;;;;;11.43;6.47;;;;;;;0.87;92.25;98952.16;3551316;27;20169;-60
2021/03/19 01:31:12;;;;;;;10.68;6.75;;;;;;;0.86;92.34;98949.53;3553908;27;20111;-60
2021/03/19 01:32:54;;;;;;;11.82;6.10;;;;;;;0.85;92.53;98951.22;3550317;27;20598;-60
2021/03/19 01:34:36;;;;;;;12.50;6.75;;;;;;;0.84;92.70;98952.03;3553407;27;20046;-59
2021/03/19 01:36:18;;;;;;;13.35;6.78;;;;;;;0.83;92.61;98952.84;3551640;27;20111;-60
2021/03/19 01:38:00;;;;;;;11.75;6.38;;;;;;;0.83;92.38;98952.84;3551581;27;20081;-60
2021/03/19 01:39:41;;;;;;;11.85;6.60;;;;;;;0.82;92.49;98958.75;3552953;27;20099;-60
2021/03/19 01:41:23;;;;;;;12.52;6.43;;;;;;;0.84;92.50;98948.59;3549986;27;20038;-60
2021/03/19 01:43:05;;;;;;;12.82;6.30;;;;;;;0.82;92.34;98953.66;3553859;27;20441;-60
2021/03/19 01:45:22;;;;;;;12.05;6.75;;;;;;;0.80;92.12;98956.13;3549903;27;20047;-60
2021/03/19 01:47:41;;;;;;;10.57;5.72;;;;;;;0.82;92.53;98960.44;3551133;27;20392;-60
2021/03/19 01:50:00;;;;;;;11.88;6.75;;;;;;;0.83;92.45;98957.09;3539618;27;20082;-60
2021/03/19 01:52:19;;;;;;;13.27;7.07;;;;;;;0.82;92.48;98960.44;3552524;27;20061;-60
2021/03/19 01:54:38;;;;;;;9.98;6.00;;;;;;;0.82;92.52;98955.34;3549516;27;20050;-60
2021/03/19 01:56:57;;;;;;;11.68;6.80;;;;;;;0.83;92.36;98952.84;3552016;27;20408;-60
2021/03/19 01:59:16;;;;;;;13.10;6.85;;;;;;;0.83;92.25;98959.66;3551051;27;20053;-60
2021/03/19 02:01:35;;;;;;;11.82;6.50;;;;;;;0.83;92.49;98964.75;3539297;28;20530;-60
2021/03/19 02:03:53;;;;;;;12.00;6.43;;;;;;;0.84;92.27;98963.91;3554122;27;20511;-60
2021/03/19 02:06:12;;;;;;;11.77;6.57;;;;;;;0.84;92.51;98957.13;3549787;27;20495;-60
2021/03/19 02:08:31;;;;;;;12.13;6.95;;;;;;;0.83;92.41;98957.09;3549752;27;20047;-60
2021/03/19 02:10:50;;;;;;;11.35;6.60;;;;;;;0.83;92.39;98960.50;3539776;27;20079;-60
2021/03/19 02:13:08;;;;;;;12.23;6.72;;;;;;;0.84;92.50;98963.91;3552596;27;20055;-60
2021/03/19 02:15:27;;;;;;;11.57;6.78;;;;;;;0.85;92.55;98970.78;3551038;27;20043;-60
2021/03/19 02:17:46;;;;;;;12.52;6.53;;;;;;;0.84;92.60;98969.03;3549583;27;20514;-60
2021/03/19 02:20:06;;;;;;;15.20;7.75;;;;;;;0.84;92.24;98969.03;3550639;27;20038;-60
2021/03/19 02:22:25;;;;;;;11.18;6.35;;;;;;;0.82;92.47;98968.97;3539148;28;20051;-60
2021/03/19 02:24:52;;;;;;;12.10;6.57;;;;;;;0.80;92.24;98965.47;3551617;27;20050;-60
2021/03/19 02:27:10;;;;;;;12.77;6.55;;;;;;;0.79;92.47;98969.72;3504072;27;20514;-60
2021/03/19 02:29:29;;;;;;;12.98;6.47;;;;;;;0.78;92.68;98969.66;3551117;27;20055;-60
2021/03/19 02:31:10;;;;;;;13.05;6.50;;;;;;;0.78;92.74;98970.53;3551066;27;20157;-60
2021/03/19 02:32:53;;;;;;;12.15;6.50;;;;;;;0.79;92.86;98968.84;3551791;27;20057;-60
2021/03/19 02:34:39;;;;;;;12.60;6.68;;;;;;;0.78;92.62;98970.53;3551359;27;20460;-60
2021/03/19 02:36:25;;;;;;;15.07;7.82;;;;;;;0.77;92.56;98967.91;3538965;27;20043;-59
2021/03/19 02:38:08;;;;;;;12.40;6.78;;;;;;;0.76;92.50;98968.72;3548154;27;20042;-59
2021/03/19 02:39:50;;;;;;;12.88;7.32;;;;;;;0.76;92.67;98972.16;3552720;27;20058;-60
2021/03/19 02:41:31;;;;;;;14.05;7.65;;;;;;;0.77;93.08;98976.44;3550839;27;20144;-60
2021/03/19 02:43:13;;;;;;;13.10;7.15;;;;;;;0.77;92.82;98976.44;3550919;27;20073;-60
2021/03/19 02:44:55;;;;;;;13.48;7.53;;;;;;;0.79;92.94;98979.06;3551770;27;20080;-60
2021/03/19 02:46:36;;;;;;;14.65;8.32;;;;;;;0.77;92.95;98984.09;3549328;27;20053;-59
2021/03/19 02:48:20;;;;;;;15.38;8.52;;;;;;;0.78;92.94;98984.97;3552489;27;20137;-60
2021/03/19 02:50:03;;;;;;;13.43;8.20;;;;;;;0.79;93.14;98985.03;3549588;27;20039;-59
2021/03/19 02:51:44;;;;;;;14.88;8.68;;;;;;;0.79;92.74;98982.50;3552624;27;20096;-60
2021/03/19 02:53:29;;;;;;;15.02;9.32;;;;;;;0.79;93.02;98989.28;3550724;27;20054;-59
2021/03/19 02:55:15;;;;;;;17.48;9.70;;;;;;;0.77;92.75;98991.78;3549582;27;20420;-59
2021/03/19 02:56:56;;;;;;;14.27;8.45;;;;;;;0.76;92.73;98978.94;3552862;27;20050;-59
2021/03/19 02:58:38;;;;;;;13.65;8.38;;;;;;;0.75;92.69;98987.38;3549354;27;20057;-59
2021/03/19 03:00:22;;;;;;;14.45;8.57;;;;;;;0.73;92.52;98984.78;3553056;27;20050;-59
2021/03/19 03:02:04;;;;;;;14.68;8.63;;;;;;;0.75;92.80;98989.94;3549092;27;20053;-59
2021/03/19 03:03:47;;;;;;;12.95;8.40;;;;;;;0.74;92.74;98993.31;3551338;27;20050;-59
2021/03/19 03:05:28;;;;;;;14.35;8.32;;;;;;;0.74;92.45;98994.19;3550541;27;20076;-59
2021/03/19 03:07:20;;;;;;;15.05;8.68;;;;;;;0.74;92.72;98995.88;3550465;27;20046;-60
2021/03/19 03:09:01;;;;;;;12.80;7.38;;;;;;;0.74;92.60;98999.28;3539044;28;20055;-59
2021/03/19 03:10:44;;;;;;;13.00;7.68;;;;;;;0.74;92.68;98998.44;3546005;27;20046;-59
2021/03/19 03:12:25;;;;;;;12.00;7.50;;;;;;;0.74;92.52;99003.53;3552054;27;20050;-59
2021/03/19 03:14:09;;;;;;;11.88;7.50;;;;;;;0.72;92.54;98995.81;3548452;27;20166;-59
2021/03/19 03:15:50;;;;;;;14.05;8.07;;;;;;;0.72;92.64;98997.47;3550377;27;20495;-60
2021/03/19 03:17:32;;;;;;;12.93;7.57;;;;;;;0.69;92.42;98997.34;3551347;27;20501;-60
2021/03/19 03:19:17;;;;;;;11.45;7.05;;;;;;;0.71;92.39;99006.81;3549206;27;20137;-60
2021/03/19 03:21:00;;;;;;;12.88;8.07;;;;;;;0.71;92.45;99008.50;3552827;27;20061;-59
2021/03/19 03:22:42;;;;;;;14.52;8.15;;;;;;;0.71;92.19;99005.94;3551249;27;20047;-59
2021/03/19 03:24:25;;;;;;;15.55;8.70;;;;;;;0.68;92.45;99005.81;3552131;27;20047;-60
2021/03/19 03:26:07;;;;;;;16.37;8.30;;;;;;;0.66;92.52;99007.44;3550007;27;20054;-60
2021/03/19 03:27:49;;;;;;;13.82;7.93;;;;;;;0.66;92.42;99003.19;3549489;27;20051;-60
2021/03/19 03:29:31;;;;;;;14.98;8.68;;;;;;;0.65;92.70;99011.69;3553093;27;20051;-58
2021/03/19 03:31:13;;;;;;;14.13;8.15;;;;;;;0.65;92.66;99010.78;3549130;27;20050;-57
2021/03/19 03:32:55;;;;;;;16.15;8.73;;;;;;;0.65;92.65;99003.13;3552114;27;20047;-58
2021/03/19 03:34:38;;;;;;;19.05;10.80;;;;;;;0.64;92.33;99015.03;3549883;27;20078;-58
2021/03/19 03:36:20;;;;;;;17.60;9.20;;;;;;;0.64;92.31;99009.06;3549781;27;20080;-56
2021/03/19 03:38:05;;;;;;;18.48;10.18;;;;;;;0.64;92.37;99009.91;3551844;27;20085;-57
2021/03/19 03:39:47;;;;;;;19.27;9.68;;;;;;;0.64;92.51;99007.38;3550128;27;20050;-57
2021/03/19 03:41:28;;;;;;;21.88;10.77;;;;;;;0.64;92.29;99015.03;3552527;27;20091;-59
2021/03/19 03:43:12;;;;;;;18.27;9.65;;;;;;;0.64;92.60;99007.38;3551053;27;20047;-58
2021/03/19 03:44:54;;;;;;;23.40;11.02;;;;;;;0.65;92.71;99006.56;3552005;27;20046;-58
2021/03/19 03:46:35;;;;;;;20.33;10.60;;;;;;;0.65;92.33;99006.56;3549502;27;20051;-58
2021/03/19 03:48:19;;;;;;;19.55;10.18;;;;;;;0.64;92.48;99017.56;3550223;27;20073;-58
2021/03/19 03:50:03;;;;;;;18.02;9.93;;;;;;;0.62;92.70;99014.09;3551305;27;20053;-58
2021/03/19 03:51:45;;;;;;;19.45;9.95;;;;;;;0.64;92.70;99015.03;3548348;27;20038;-58
2021/03/19 03:53:28;;;;;;;17.77;10.15;;;;;;;0.63;92.50;99008.19;3552180;27;20450;-59
2021/03/19 03:55:10;;;;;;;16.42;9.00;;;;;;;0.63;92.31;99003.09;3548763;27;20047;-58
2021/03/19 03:56:52;;;;;;;16.17;8.20;;;;;;;0.62;92.76;99003.88;3551092;27;20084;-58
2021/03/19 03:58:33;;;;;;;15.10;8.90;;;;;;;0.63;92.71;99007.28;3549992;27;20047;-58
2021/03/19 04:00:22;;;;;;;19.35;10.45;;;;;;;0.64;92.63;99009.06;3550242;27;20492;-59
2021/03/19 04:02:16;;;;;;;17.40;10.23;;;;;;;0.63;92.43;99012.41;3554644;27;20080;-59
2021/03/19 04:03:58;;;;;;;16.60;9.25;;;;;;;0.63;92.83;99012.41;3551566;27;20054;-58
2021/03/19 04:05:43;;;;;;;16.92;10.15;;;;;;;0.63;92.83;99013.28;3554458;27;20050;-58
2021/03/19 04:07:24;;;;;;;17.30;9.45;;;;;;;0.63;92.51;99008.19;3552086;27;20463;-59
2021/03/19 04:09:06;;;;;;;17.38;8.88;;;;;;;0.63;92.59;99007.28;3553698;27;20073;-59
2021/03/19 04:10:48;;;;;;;15.35;9.23;;;;;;;0.61;92.19;99009.78;3554612;27;20054;-59
2021/03/19 04:12:29;;;;;;;17.42;10.52;;;;;;;0.59;92.00;99009.75;3551311;27;20051;-59
2021/03/19 04:14:11;;;;;;;15.43;8.38;;;;;;;0.59;92.20;99013.94;3553256;27;20079;-59
2021/03/19 04:15:52;;;;;;;15.82;8.80;;;;;;;0.57;92.09;99013.88;3552130;27;20498;-59
2021/03/19 04:17:35;;;;;;;19.48;9.40;;;;;;;0.56;92.30;99014.72;3553667;27;20433;-59
2021/03/19 04:19:17;;;;;;;15.98;9.60;;;;;;;0.55;92.36;99020.59;3552101;27;20507;-59
2021/03/19 04:21:02;;;;;;;18.92;9.52;;;;;;;0.57;92.63;99018.13;3553507;27;20286;-59
2021/03/19 04:22:44;;;;;;;18.70;9.60;;;;;;;0.57;92.63;99024.09;3566974;27;20051;-61
2021/03/19 04:24:25;;;;;;;17.65;8.90;;;;;;;0.58;92.65;99019.88;3555877;27;20047;-61
2021/03/19 04:26:07;;;;;;;19.95;10.43;;;;;;;0.59;92.40;99019.06;3554820;27;20055;-61
2021/03/19 04:27:51;;;;;;;20.13;10.57;;;;;;;0.61;92.88;99020.00;3550788;27;20495;-61
2021/03/19 04:29:33;;;;;;;21.48;10.85;;;;;;;0.64;92.53;99021.81;3551323;27;20058;-61
2021/03/19 04:31:14;;;;;;;19.92;10.05;;;;;;;0.63;92.71;99020.94;3554187;27;20054;-61
2021/03/19 04:32:58;;;;;;;20.70;11.00;;;;;;;0.64;92.67;99019.25;3551112;27;20042;-61
2021/03/19 04:34:40;;;;;;;20.25;10.85;;;;;;;0.65;92.51;99018.44;3554693;27;20051;-62
2021/03/19 04:36:32;;;;;;;21.13;10.52;;;;;;;0.64;92.48;99017.56;3553119;27;20042;-61
2021/03/19 04:38:17;;;;;;;21.13;10.48;;;;;;;0.64;92.37;99015.03;3554119;27;20047;-61
2021/03/19 04:39:58;;;;;;;16.38;8.73;;;;;;;0.65;92.47;99023.53;3553780;27;20043;-61
2021/03/19 04:41:42;;;;;;;17.88;8.80;;;;;;;0.65;92.61;99015.88;3551194;27;20495;-62
2021/03/19 04:43:23;;;;;;;16.75;9.70;;;;;;;0.65;92.16;99021.00;3553525;27;20047;-61
2021/03/19 04:45:07;;;;;;;16.58;9.48;;;;;;;0.64;92.38;99016.72;3550860;27;20081;-61
2021/03/19 04:46:49;;;;;;;16.83;9.88;;;;;;;0.64;92.18;99025.22;3554610;27;20043;-61
2021/03/19 04:48:30;;;;;;;15.25;9.20;;;;;;;0.64;92.26;99019.25;3550577;27;20046;-62
2021/03/19 04:50:13;;;;;;;17.30;9.88;;;;;;;0.65;92.31;99024.44;3553611;27;20046;-63
2021/03/19 04:51:55;;;;;;;16.35;9.60;;;;;;;0.65;92.26;99021.88;3551993;27;20066;-61
2021/03/19 04:53:37;;;;;;;16.23;9.90;;;;;;;0.66;92.31;99017.66;3551992;27;20058;-62
2021/03/19 04:55:19;;;;;;;15.90;8.65;;;;;;;0.66;92.53;99023.59;3552961;27;20422;-63
2021/03/19 04:57:03;;;;;;;15.00;8.50;;;;;;;0.65;92.38;99024.44;3550561;27;20066;-63
2021/03/19 04:58:45;;;;;;;14.88;8.10;;;;;;;0.65;92.05;99024.44;3554375;27;20047;-62
2021/03/19 05:00:27;;;;;;;15.27;8.73;;;;;;;0.65;92.21;99026.09;3550601;27;20423;-62
2021/03/19 05:02:09;;;;;;;13.00;7.63;;;;;;;0.64;91.90;99019.25;3552982;27;20522;-61
2021/03/19 05:03:50;;;;;;;15.15;8.75;;;;;;;0.64;91.87;99026.91;3552223;27;20426;-62
2021/03/19 05:05:33;;;;;;;18.83;9.13;;;;;;;0.64;92.07;99027.78;3550905;27;20047;-62
2021/03/19 05:07:15;;;;;;;17.23;9.38;;;;;;;0.65;92.11;99031.19;3553254;27;20051;-61
2021/03/19 05:08:57;;;;;;;15.00;8.85;;;;;;;0.64;91.97;99021.81;3550820;27;20100;-62
2021/03/19 05:10:38;;;;;;;18.23;9.20;;;;;;;0.64;91.98;99027.78;3553894;27;20050;-62
2021/03/19 05:12:20;;;;;;;15.95;9.05;;;;;;;0.65;91.71;99024.44;3550394;27;20074;-62
2021/03/19 05:14:01;;;;;;;14.75;8.82;;;;;;;0.67;91.84;99034.72;3551236;27;20047;-62
2021/03/19 05:15:43;;;;;;;16.00;9.18;;;;;;;0.68;91.75;99032.19;3553552;27;20039;-62
2021/03/19 05:17:24;;;;;;;16.45;9.32;;;;;;;0.70;91.93;99029.72;3552680;27;20038;-62
2021/03/19 05:19:06;;;;;;;19.38;9.57;;;;;;;0.72;91.56;99038.31;3552898;27;20050;-62
2021/03/19 05:20:48;;;;;;;17.08;9.07;;;;;;;0.73;91.39;99034.97;3550312;27;20047;-61
2021/03/19 05:22:30;;;;;;;16.67;9.50;;;;;;;0.73;91.40;99035.81;3554205;27;20055;-62
2021/03/19 05:24:12;;;;;;;16.50;8.65;;;;;;;0.75;91.73;99035.88;3551508;27;20089;-62
2021/03/19 05:25:54;;;;;;;14.77;8.90;;;;;;;0.78;91.62;99033.47;3553390;27;20488;-62
2021/03/19 05:27:36;;;;;;;18.70;10.40;;;;;;;0.79;91.41;99030.13;3551462;27;20050;-61
2021/03/19 05:29:17;;;;;;;20.85;11.13;;;;;;;0.82;91.72;99037.88;3550432;27;20046;-61
2021/03/19 05:30:59;;;;;;;18.02;10.02;;;;;;;0.84;91.30;99032.84;3552886;27;20484;-62
2021/03/19 05:32:42;;;;;;;22.67;11.13;;;;;;;0.84;91.59;99031.16;3552389;27;20434;-62
2021/03/19 05:34:25;;;;;;;24.48;12.52;;;;;;;0.87;91.33;99036.41;3553954;27;20046;-62
2021/03/19 05:36:07;;;;;;;25.67;11.73;;;;;;;0.90;91.65;99038.22;3550403;27;20082;-62
2021/03/19 05:37:50;;;;;;;22.80;12.15;;;;;;;0.89;90.75;99034.78;3551609;27;20080;-63
2021/03/19 05:39:32;;;;;;;20.38;11.27;;;;;;;0.89;90.68;99044.13;3552432;27;20042;-62
2021/03/19 05:41:14;;;;;;;19.77;10.50;;;;;;;0.90;90.95;99040.78;3550805;27;20111;-62
2021/03/19 05:42:55;;;;;;;20.52;11.13;;;;;;;0.90;90.96;99040.78;3553336;27;20073;-62
2021/03/19 05:44:43;;;;;;;21.52;11.68;;;;;;;0.90;90.61;99051.00;3549595;27;20054;-62
2021/03/19 05:46:31;;;;;;;20.52;11.00;;;;;;;0.92;90.92;99049.38;3552993;27;20047;-62
2021/03/19 05:48:13;;;;;;;22.02;11.52;;;;;;;0.94;90.73;99047.75;3551669;27;20462;-62
2021/03/19 05:49:59;;;;;;;21.10;12.40;;;;;;;0.95;90.96;99045.28;3550477;27;20042;-62
2021/03/19 05:51:43;;;;;;;22.95;11.60;;;;;;;0.98;90.71;99047.97;3552955;27;20090;-63
2021/03/19 05:53:45;;;;;;;20.27;10.23;;;;;;;1.00;91.23;99055.69;3550016;27;20073;-62
2021/03/19 05:55:26;;;;;;;21.42;10.75;;;;;;;1.03;91.04;99050.69;3553018;27;20461;-63
2021/03/19 05:57:23;;;;;;;21.40;11.73;;;;;;;1.06;91.19;99055.06;3550607;27;20051;-63
2021/03/19 05:59:05;;;;;;;24.73;12.57;;;;;;;1.06;90.88;99055.94;3550354;27;20129;-63
2021/03/19 06:00:46;;;;;;;21.80;10.75;;;;;;;1.07;91.04;99060.25;3539197;28;20125;-63
2021/03/19 06:02:31;;;;;;;19.45;10.93;;;;;;;1.09;90.89;99062.81;3546271;27;20042;-62
2021/03/19 06:04:19;;;;;;;19.80;10.20;;;;;;;1.09;90.46;99060.28;3553035;27;20065;-63
2021/03/19 06:06:03;;;;;;;21.27;10.95;;;;;;;1.11;90.45;99066.34;3550435;27;20051;-62
2021/03/19 06:07:48;;;;;;;19.30;10.60;;;;;;;1.10;90.57;99068.00;3550036;27;20051;-63
2021/03/19 06:09:33;;;;;;;17.90;9.57;;;;;;;1.11;90.38;99071.44;3553613;27;20057;-61
2021/03/19 06:11:21;;;;;;;17.95;9.77;;;;;;;1.07;90.15;99072.13;3550735;27;20445;-61
2021/03/19 06:13:15;;;;;;;16.42;9.20;;;;;;;1.05;89.77;99073.72;3552014;27;20079;-61
2021/03/19 06:14:58;;;;;;;15.35;9.15;;;;;;;1.06;90.27;99080.59;3553059;27;20046;-60
2021/03/19 06:16:44;;;;;;;17.40;9.30;;;;;;;1.06;90.00;99070.38;3552435;27;20058;-55
2021/03/19 06:18:33;;;;;;;17.92;9.98;;;;;;;1.06;90.36;99071.25;3552243;27;20099;-54
2021/03/19 06:20:18;;;;;;;17.20;10.45;;;;;;;1.08;90.34;99071.31;3551878;27;20104;-55
2021/03/19 06:22:24;;;;;;;22.98;11.35;;;;;;;1.11;90.52;99074.00;3553206;27;20055;-51
2021/03/19 06:24:24;;;;;;;20.00;10.65;;;;;;;1.10;90.31;99075.66;3551876;27;20054;-53
2021/03/19 06:26:22;;;;;;;22.35;11.13;;;;;;;1.10;89.81;99077.34;3552120;27;20047;-56
2021/03/19 06:28:07;;;;;;;22.48;11.05;;;;;;;1.09;90.16;99079.03;3553066;27;20049;-54
2021/03/19 06:29:51;;;;;;;23.00;11.35;;;;;;;1.08;90.13;99079.84;3550850;27;20055;-52
2021/03/19 06:31:33;;;;;;;30.23;15.05;;;;;;;1.11;90.36;99081.66;3549756;27;20046;-59
2021/03/19 06:33:25;;;;;;;26.10;13.95;;;;;;;1.11;90.24;99084.22;3552922;27;20074;-58
2021/03/19 06:35:21;;;;;;;24.50;13.05;;;;;;;1.12;90.28;99085.94;3549691;27;20531;-59
2021/03/19 06:37:06;;;;;;;22.92;11.68;;;;;;;1.13;90.39;99088.56;3552114;27;20091;-59
2021/03/19 06:38:50;;;;;;;23.52;12.02;;;;;;;1.15;90.16;99091.19;3550585;27;20047;-58
2021/03/19 06:40:35;;;;;;;25.45;12.50;;;;;;;1.18;90.59;99089.63;3551588;27;20065;-58
2021/03/19 06:42:33;;;;;;;20.77;11.15;;;;;;;1.23;90.24;99094.06;3553222;27;20050;-55
2021/03/19 06:44:18;;;;;;;24.50;12.23;;;;;;;1.26;90.25;99089.94;3549593;27;20043;-55
2021/03/19 06:46:10;;;;;;;22.65;11.52;;;;;;;1.30;90.29;99094.38;3551522;27;20495;-55
2021/03/19 06:47:54;;;;;;;22.52;11.88;;;;;;;1.32;89.97;99102.13;3553210;27;20047;-54
2021/03/19 06:49:52;;;;;;;22.55;11.45;;;;;;;1.33;90.20;99101.28;3549372;27;20126;-55
2021/03/19 06:51:36;;;;;;;21.15;11.02;;;;;;;1.34;90.29;99098.81;3552897;27;20054;-54
2021/03/19 06:53:21;;;;;;;21.27;11.40;;;;;;;1.38;89.89;99100.66;3551597;27;20053;-54
2021/03/19 06:55:06;;;;;;;22.02;11.18;;;;;;;1.40;89.69;99095.63;3550816;27;20551;-54
2021/03/19 06:57:03;;;;;;;20.30;10.57;;;;;;;1.43;89.80;99100.00;3552150;27;20491;-57
2021/03/19 06:58:49;;;;;;;18.23;10.77;;;;;;;1.44;89.38;99096.63;3550285;27;20047;-58
2021/03/19 07:00:35;;;;;;;17.33;9.98;;;;;;;1.43;89.42;99095.75;3552797;27;20388;-57
2021/03/19 07:02:56;;;;;;;22.13;11.35;;;;;;;1.45;89.49;99095.81;3548889;27;20050;-58
2021/03/19 07:04:57;;;;;;;19.13;10.80;;;;;;;1.44;89.69;99096.63;3491307;27;20051;-58
2021/03/19 07:07:05;;;;;;;23.50;12.07;;;;;;;1.44;89.58;99097.50;3552459;27;20043;-58
2021/03/19 07:08:53;;;;;;;21.30;11.45;;;;;;;1.46;89.86;99098.44;3551888;27;20099;-58
2021/03/19 07:10:46;;;;;;;22.08;12.00;;;;;;;1.51;90.31;99096.94;3549126;27;20042;-58
2021/03/19 07:12:40;;;;;;;23.92;12.20;;;;;;;1.56;90.30;99102.22;3552269;27;20473;-58
2021/03/19 07:14:56;;;;;;;20.77;11.75;;;;;;;1.57;89.74;99098.88;3549457;27;20515;-58
2021/03/19 07:16:51;;;;;;;19.90;11.15;;;;;;;1.63;90.29;99103.34;3543773;27;20046;-59
2021/03/19 07:18:52;;;;;;;19.73;11.25;;;;;;;1.68;90.34;99105.28;3551906;27;20432;-59
2021/03/19 07:20:46;;;;;;;20.08;11.18;;;;;;;1.69;90.05;99109.59;3552986;27;20136;-59
2021/03/19 07:22:40;;;;;;;23.35;11.85;;;;;;;1.72;90.16;99101.16;3549205;27;20100;-60
2021/03/19 07:24:35;;;;;;;17.90;11.07;;;;;;;1.74;90.07;99104.63;3552099;27;20058;-60
2021/03/19 07:26:22;;;;;;;23.48;11.43;;;;;;;1.74;89.79;99104.63;3550103;27;20054;-60
2021/03/19 07:28:30;;;;;;;20.98;11.70;;;;;;;1.78;90.30;99103.97;3549107;27;20047;-59
2021/03/19 07:30:22;;;;;;;23.13;12.82;;;;;;;1.81;90.22;99105.75;3538498;28;20124;-60
2021/03/19 07:32:30;;;;;;;21.83;11.85;;;;;;;1.79;89.70;99107.38;3553174;27;20046;-59
2021/03/19 07:34:36;;;;;;;21.17;11.57;;;;;;;1.78;89.74;99109.06;3549000;27;20596;-60
2021/03/19 07:36:32;;;;;;;20.42;11.43;;;;;;;1.78;89.75;99109.06;3551516;27;20078;-59
2021/03/19 07:38:40;;;;;;;22.27;11.85;;;;;;;1.76;89.57;99110.72;3550695;27;20077;-59
2021/03/19 07:40:37;;;;;;;32.65;13.52;;;;;;;1.71;88.58;99113.06;3548780;27;20042;-59
2021/03/19 07:42:29;;;;;;;24.25;11.93;;;;;;;1.66;89.24;99116.25;3551093;27;20073;-59
2021/03/19 07:44:40;;;;;;;28.63;14.68;;;;;;;1.61;89.11;99117.75;3550831;27;20043;-58
2021/03/19 07:46:29;;;;;;;24.17;13.77;;;;;;;1.56;88.68;99120.13;3542646;27;20069;-59
2021/03/19 07:48:34;;;;;;;28.45;14.55;;;;;;;1.49;89.12;99116.44;3551990;27;20051;-59
2021/03/19 07:50:28;;;;;;;22.63;12.50;;;;;;;1.47;89.33;99122.31;3553202;27;20089;-58
2021/03/19 07:52:29;;;;;;;30.50;16.02;;;;;;;1.39;89.08;99119.44;3548859;27;20050;-58
2021/03/19 07:54:15;;;;;;;30.00;15.20;;;;;;;1.33;89.60;99119.19;3551492;27;20061;-58
2021/03/19 07:55:59;;;;;;;24.80;14.30;;;;;;;1.28;89.82;99126.69;3552316;27;20495;-57
2021/03/19 07:57:48;;;;;;;27.00;15.32;;;;;;;1.22;89.38;99118.75;3551070;27;20039;-57
2021/03/19 07:59:45;;;;;;;27.08;14.32;;;;;;;1.19;90.10;99121.16;3552203;27;20466;-58
2021/03/19 08:01:39;;;;;;;28.30;14.50;;;;;;;1.14;90.29;99118.44;3551181;27;20077;-60
2021/03/19 08:03:27;;;;;;;31.15;15.65;;;;;;;1.20;90.46;99124.59;3550449;27;20139;-57
2021/03/19 08:05:18;;;;;;;27.92;13.85;;;;;;;1.22;90.97;99121.28;3538293;28;20047;-58
2021/03/19 08:07:16;;;;;;;22.05;12.05;;;;;;;1.28;91.23;99126.69;3546494;27;20070;-58
2021/03/19 08:09:03;;;;;;;21.65;11.25;;;;;;;1.33;90.91;99122.59;3550190;27;20491;-57
2021/03/19 08:11:10;;;;;;;24.70;12.75;;;;;;;1.41;90.84;99132.25;3551785;27;20050;-57
2021/03/19 08:13:01;;;;;;;21.17;10.85;;;;;;;1.47;90.93;99123.16;3539213;27;20054;-58
2021/03/19 08:14:55;;;;;;;20.42;11.27;;;;;;;1.55;90.88;99119.25;3538499;27;20059;-58
2021/03/19 08:16:42;;;;;;;17.55;9.70;;;;;;;1.61;91.05;99116.06;3551998;27;20080;-58
2021/03/19 08:18:30;;;;;;;18.30;10.23;;;;;;;1.71;91.04;99125.84;3550814;27;20091;-57
2021/03/19 08:20:28;;;;;;;19.92;11.07;;;;;;;1.79;90.77;99122.72;3552255;27;20423;-57
2021/03/19 08:22:16;;;;;;;21.95;12.02;;;;;;;1.84;90.09;99128.91;3548896;27;20051;-58
2021/03/19 08:24:33;;;;;;;21.55;11.70;;;;;;;1.91;89.70;99123.22;3550895;27;20051;-57
2021/03/19 08:26:21;;;;;;;23.60;12.30;;;;;;;1.97;89.75;99125.13;3537775;28;20483;-57